Latest Weather Observations for Charleville

IDQ60801

Issued at 9:35 pm EST Friday 22 August 2014 (issued every 30 minutes, with the page automatically refreshed every 10 minutes)

About weather observations | Map of weather stations | Latest weather observations for QLD | Other Formats
Station Details ID: 044021 Name: CHARLEVILLE AERO Lat: -26.41 Lon: 146.26 Height: 301.6 m
Data from the previous 72 hours. | See also: Recent months at Charleville
Date/Time
EST
Temp
°C
App
Temp
°C
Dew
Point
Rel
Hum
%
Delta-T
°C
Wind Press
QNH
hPa
Press
MSL
hPa
Rain
since 9 am
mm
Dir
 
Spd
km/h
Gust
km/h
Spd
kts
Gust
kts
22/09:30pm 13.0 10.8 7.7 70 2.6 E 9 11 5 6 1023.7 - 0.0
22/09:00pm 13.7 11.8 7.4 65 3.1 SE 7 9 4 5 1023.5 1023.5 0.0
22/08:30pm 14.6 12.2 7.2 61 3.7 SE 9 11 5 6 1023.3 - 0.0
22/08:00pm 15.5 12.2 6.6 55 4.4 ESE 13 15 7 8 1023.1 - 0.0
22/07:30pm 16.5 13.6 6.5 51 5.0 ESE 11 13 6 7 1022.9 - 0.0
22/07:00pm 16.7 12.7 4.8 45 5.7 SE 15 19 8 10 1022.4 - 0.0
22/06:30pm 17.2 14.6 5.9 47 5.6 SE 9 11 5 6 1021.9 - 0.0
22/06:00pm 18.5 14.8 4.2 38 6.9 SE 13 17 7 9 1021.4 1021.5 0.0
22/05:30pm 19.7 13.8 3.8 35 7.7 SE 24 32 13 17 1021.3 - 0.0
22/05:12pm 21.4 13.4 1.6 27 9.3 SSE 33 39 18 21 1021.0 - 0.0
22/05:00pm 21.5 17.5 2.6 28 9.0 SSE 13 17 7 9 1020.9 - 0.0
22/04:30pm 21.3 16.6 3.0 30 8.8 S 17 20 9 11 1020.8 - 0.0
22/04:00pm 22.2 17.0 3.6 29 9.1 SE 20 28 11 15 1020.4 - 0.0
22/03:30pm 21.1 18.5 4.3 33 8.3 E 7 11 4 6 1020.6 - 0.0
22/03:00pm 21.5 17.2 3.0 29 8.9 SSE 15 19 8 10 1020.7 1020.7 0.0
22/02:30pm 22.2 18.0 3.8 30 9.0 SSE 15 19 8 10 1020.8 - 0.0
22/02:00pm 22.1 18.6 3.6 29 9.0 ESE 11 20 6 11 1021.1 - 0.0
22/01:30pm 20.7 18.2 4.9 35 7.8 SSW 7 9 4 5 1021.5 - 0.0
22/01:00pm 20.9 17.8 5.6 36 7.7 SE 11 17 6 9 1022.1 - 0.0
22/12:30pm 20.8 18.5 7.4 42 7.0 S 9 13 5 7 1022.6 - 0.0
22/12:00pm 20.6 18.0 7.7 43 6.7 N 11 17 6 9 1023.3 1023.3 0.0
22/11:30am 19.9 16.9 7.8 45 6.3 NE 13 19 7 10 1023.8 - 0.0
22/11:00am 19.3 16.3 7.9 47 5.9 NNE 13 20 7 11 1024.3 - 0.0
22/10:30am 18.1 15.3 8.4 53 5.1 N 13 19 7 10 1024.6 - 0.0
22/10:00am 17.8 14.7 8.8 55 4.7 N 15 19 8 10 1024.8 - 0.0
22/09:30am 16.9 14.2 8.9 59 4.2 NNE 13 19 7 10 1024.9 - 0.0
22/09:00am 15.7 13.4 8.9 64 3.5 NNE 11 15 6 8 1024.7 1024.8 0.0
22/08:30am 14.3 11.5 8.5 68 3.0 NE 13 17 7 9 1024.5 - 0.0
22/08:00am 13.8 13.6 9.0 73 2.5 CALM 0 0 0 0 1024.2 - 0.0
22/07:30am 10.6 9.6 8.7 88 1.0 SSE 4 7 2 4 1023.7 - 0.0
22/07:00am 10.1 8.5 8.2 88 0.9 S 6 7 3 4 1023.3 - 0.0
22/06:30am 11.5 9.8 8.5 82 1.5 N 7 7 4 4 1022.9 - 0.0
22/06:00am 12.6 9.7 8.2 74 2.2 ENE 13 19 7 10 1022.3 1022.3 0.0
22/05:30am 12.7 9.0 8.1 73 2.3 E 17 22 9 12 1021.8 - 0.0
22/05:00am 12.7 9.8 8.1 73 2.3 E 13 17 7 9 1021.4 - 0.0
22/04:30am 12.9 10.0 8.0 72 2.5 E 13 17 7 9 1021.1 - 0.0
22/04:00am 13.0 10.0 7.8 70 2.6 E 13 19 7 10 1021.1 - 0.0
22/03:30am 13.0 10.0 7.6 70 2.7 E 13 19 7 10 1021.1 - 0.0
22/03:00am 12.6 9.9 7.5 71 2.5 E 11 13 6 7 1021.2 1021.3 0.0
22/02:30am 13.1 10.0 7.3 68 2.9 E 13 17 7 9 1021.4 - 0.0
22/02:00am 10.4 8.5 7.6 83 1.4 ESE 7 9 4 5 1021.7 - 0.0
22/01:30am 12.2 9.5 7.2 71 2.5 E 11 15 6 8 1021.9 - 0.0
22/01:00am 12.5 10.1 7.1 69 2.6 E 9 11 5 6 1022.0 - 0.0
22/12:30am 11.8 8.6 7.0 72 2.3 ESE 13 15 7 8 1022.1 - 0.0
22/12:00am 11.2 9.0 7.7 79 1.7 ESE 9 11 5 6 1022.2 1022.2 0.0
 
Date/Time
EST
Temp
°C
App
Temp
°C
Dew
Point
Rel
Hum
%
Delta-T
°C
Wind Press
QNH
hPa
Press
MSL
hPa
Rain
since 9 am
mm
Dir
 
Spd
km/h
Gust
km/h
Spd
kts
Gust
kts
21/11:30pm 11.4 9.0 7.1 75 2.1 ESE 9 11 5 6 1022.1 - 0.0
21/11:00pm 11.4 8.6 6.9 74 2.2 ESE 11 11 6 6 1022.2 - 0.0
21/10:30pm 10.9 8.9 7.0 77 1.9 SE 7 11 4 6 1022.2 - 0.0
21/10:00pm 11.8 9.8 6.9 72 2.4 SE 7 9 4 5 1022.1 - 0.0
21/09:30pm 12.0 9.6 6.8 70 2.5 SSE 9 9 5 5 1022.0 - 0.0
21/09:00pm 12.7 9.8 6.5 66 3.0 SSE 11 11 6 6 1021.9 1021.9 0.0
21/08:30pm 12.9 10.3 6.3 64 3.2 SE 9 11 5 6 1021.7 - 0.0
21/08:00pm 13.5 11.3 6.4 62 3.5 SSE 7 7 4 4 1021.3 - 0.0
21/07:30pm 14.9 12.8 6.5 57 4.1 ESE 7 9 4 5 1021.0 - 0.0
21/07:00pm 16.0 12.4 4.9 47 5.3 E 13 17 7 9 1020.7 - 0.0
21/06:30pm 16.7 13.9 5.1 46 5.6 SE 9 9 5 5 1020.3 - 0.0
21/06:00pm 18.1 14.8 4.4 40 6.6 E 11 13 6 7 1020.0 1020.0 0.0
21/05:30pm 19.1 14.7 4.8 39 7.0 E 17 22 9 12 1019.6 - 0.0
21/05:00pm 20.0 15.4 3.9 34 7.8 ESE 17 24 9 13 1019.4 - 0.0
21/04:30pm 20.6 15.4 3.8 33 8.2 SE 20 28 11 15 1019.1 - 0.0
21/04:00pm 20.9 17.1 4.1 33 8.2 SE 13 19 7 10 1018.9 - 0.0
21/03:30pm 20.1 16.3 3.8 34 7.9 ESE 13 17 7 9 1018.9 - 0.0
21/03:00pm 20.0 15.8 3.6 34 7.9 E 15 20 8 11 1019.1 1019.1 0.0
21/02:30pm 21.2 16.3 4.0 32 8.4 ESE 19 30 10 16 1019.3 - 0.0
21/02:00pm 20.7 15.8 4.3 34 8.1 SSE 19 30 10 16 1019.4 - 0.0
21/01:30pm 20.8 15.3 4.1 33 8.2 SE 22 30 12 16 1019.7 - 0.0
21/01:00pm 20.0 15.2 4.9 37 7.5 SSE 19 28 10 15 1020.1 - 0.0
21/12:30pm 19.6 14.5 5.9 40 6.9 SSE 22 28 12 15 1020.6 - 0.0
21/12:00pm 18.3 13.7 6.4 45 6.0 ESE 20 26 11 14 1021.1 1021.2 0.0
21/11:30am 17.5 13.2 6.9 49 5.4 ESE 19 22 10 12 1021.5 - 0.0
21/11:00am 15.9 12.4 7.0 55 4.5 SE 15 19 8 10 1022.1 - 0.0
21/10:30am 15.2 11.6 6.6 56 4.3 SE 15 19 8 10 1022.3 - 0.0
21/10:00am 15.3 12.4 6.4 55 4.4 SE 11 13 6 7 1022.5 - 0.0
21/09:30am 15.2 12.3 6.6 56 4.3 ESE 11 17 6 9 1022.4 - 0.0
21/09:00am 14.5 11.2 6.3 58 4.0 ESE 13 15 7 8 1022.2 1022.2 0.0
21/08:30am 14.1 12.1 6.3 59 3.8 ENE 6 9 3 5 1022.2 - 0.0
21/08:00am 13.2 10.0 6.9 65 3.1 E 13 15 7 8 1021.7 - 0.0
21/07:30am 12.0 9.8 6.4 68 2.7 W 7 9 4 5 1021.3 - 0.0
21/07:00am 12.5 9.1 6.1 65 3.1 E 13 19 7 10 1020.8 - 0.0
21/06:30am 12.2 8.4 5.7 64 3.1 E 15 19 8 10 1020.5 - 0.0
21/06:00am 12.1 8.3 5.8 65 3.0 ESE 15 19 8 10 1020.3 1020.3 0.0
21/05:30am 12.3 8.9 6.0 65 3.0 E 13 17 7 9 1020.1 - 0.0
21/05:00am 12.4 9.1 6.3 66 2.9 ESE 13 17 7 9 1020.0 - 0.0
21/04:30am 13.0 9.6 6.0 62 3.4 ESE 13 17 7 9 1020.0 - 0.0
21/04:00am 13.7 9.5 5.8 59 3.8 ESE 17 24 9 13 1019.9 - 0.0
21/03:30am 14.2 9.6 5.6 56 4.1 ESE 19 28 10 15 1019.9 - 0.0
21/03:00am 14.7 9.9 5.6 54 4.4 ESE 20 33 11 18 1019.9 1019.9 0.0
21/02:30am 14.2 10.5 6.1 58 3.9 ESE 15 20 8 11 1020.1 - 0.0
21/02:00am 11.0 10.6 8.1 82 1.4 CALM 0 6 0 3 1020.3 - 0.0
21/01:30am 11.5 9.4 8.2 80 1.6 SSE 9 11 5 6 1020.4 - 0.0
21/01:00am 11.2 10.3 7.9 80 1.6 SW 2 9 1 5 1020.6 - 0.0
21/12:30am 12.0 11.1 7.6 74 2.2 WSW 2 9 1 5 1020.6 - 0.0
21/12:00am 13.1 11.1 7.2 67 2.9 SSW 7 9 4 5 1020.5 1020.5 0.0
 
Date/Time
EST
Temp
°C
App
Temp
°C
Dew
Point
Rel
Hum
%
Delta-T
°C
Wind Press
QNH
hPa
Press
MSL
hPa
Rain
since 9 am
mm
Dir
 
Spd
km/h
Gust
km/h
Spd
kts
Gust
kts
20/11:30pm 14.0 10.8 6.9 62 3.5 S 13 15 7 8 1020.6 - 0.0
20/11:00pm 12.2 10.5 8.4 77 1.9 S 7 9 4 5 1020.8 - 0.0
20/10:30pm 12.5 11.3 8.1 74 2.2 SSE 4 6 2 3 1020.9 - 0.0
20/10:00pm 13.0 11.1 7.6 70 2.7 S 7 7 4 4 1020.9 - 0.0
20/09:30pm 13.8 11.9 7.7 66 3.1 SSE 7 9 4 5 1020.9 - 0.0
20/09:00pm 14.8 12.9 7.4 61 3.7 SSE 7 9 4 5 1020.8 1020.8 0.0
20/08:30pm 15.4 13.0 6.8 56 4.3 SSE 9 11 5 6 1020.7 - 0.0
20/08:00pm 15.5 12.7 6.9 56 4.3 SE 11 13 6 7 1020.5 - 0.0
20/07:30pm 16.3 13.8 6.7 53 4.8 SE 9 11 5 6 1020.2 - 0.0
20/07:00pm 16.8 13.8 6.0 49 5.3 SSE 11 15 6 8 1019.9 - 0.0
20/06:30pm 17.3 14.2 5.7 46 5.7 SSE 11 15 6 8 1019.6 - 0.0
20/06:00pm 17.8 13.8 5.1 43 6.2 SE 15 19 8 10 1019.4 1019.4 0.0
20/05:30pm 18.5 14.0 4.4 39 6.8 SE 17 24 9 13 1019.1 - 0.0
20/05:00pm 19.0 14.2 4.9 39 6.9 S 19 26 10 14 1018.9 - 0.0
20/04:30pm 19.3 14.5 4.9 38 7.1 SSE 19 24 10 13 1018.7 - 0.0
20/04:00pm 19.3 14.8 4.0 36 7.4 SSE 17 24 9 13 1018.6 - 0.0
20/03:30pm 19.4 16.5 4.7 38 7.2 SSE 9 15 5 8 1018.6 - 0.0
20/03:00pm 19.1 14.4 5.0 39 6.9 SSE 19 28 10 15 1018.9 1018.9 0.0
20/02:30pm 19.0 16.2 5.1 40 6.9 SSE 9 17 5 9 1019.0 - 0.0
20/02:00pm 19.4 15.5 5.4 40 7.0 S 15 24 8 13 1019.2 - 0.0
20/01:30pm 19.4 15.1 5.1 39 7.1 S 17 24 9 13 1019.4 - 0.0
20/01:00pm 18.5 14.5 5.0 41 6.6 ESE 15 26 8 14 1019.7 - 0.0
20/12:30pm 19.0 14.3 5.1 40 6.9 ESE 19 28 10 15 1020.3 - 0.0
20/12:00pm 18.4 14.0 4.9 41 6.6 ESE 17 32 9 17 1020.7 1020.7 0.0
20/11:30am 17.8 14.0 5.8 45 5.9 SE 15 26 8 14 1021.3 - 0.0
20/11:00am 17.2 13.1 6.4 49 5.4 SE 17 26 9 14 1021.5 - 0.0
20/10:30am 16.7 12.7 6.6 51 5.0 SE 17 22 9 12 1022.1 - 0.0
20/10:00am 16.1 12.2 7.3 56 4.4 SE 17 22 9 12 1022.1 - 0.0
20/09:30am 15.1 11.3 7.6 61 3.8 ESE 17 22 9 12 1022.2 - 0.0
20/09:00am 14.2 11.7 8.3 67 3.0 ESE 11 15 6 8 1022.2 1022.2 0.0
20/08:30am 12.2 10.1 8.1 76 2.0 SE 9 13 5 7 1022.1 - 0.0
20/08:00am 10.3 8.7 7.8 84 1.2 SSE 6 7 3 4 1021.8 - 0.0
20/07:30am 7.4 6.6 6.6 95 0.4 CALM 0 0 0 0 1021.4 - 0.0
20/07:00am 5.4 4.3 4.9 97 0.2 CALM 0 0 0 0 1020.9 - 0.0
20/06:30am 5.3 4.2 4.9 97 0.2 CALM 0 0 0 0 1020.8 - 0.0
20/06:00am 5.4 4.3 4.9 97 0.2 CALM 0 0 0 0 1020.7 1020.7 0.0
20/05:30am 5.6 4.5 5.1 97 0.2 CALM 0 0 0 0 1020.6 - 0.0
20/05:00am 5.9 4.8 5.3 96 0.3 CALM 0 4 0 2 1020.4 - 0.0
20/04:30am 6.0 5.0 5.4 96 0.3 CALM 0 0 0 0 1020.2 - 0.0
20/04:00am 6.3 5.3 5.7 96 0.3 CALM 0 0 0 0 1020.3 - 0.0
20/03:30am 6.6 5.7 6.1 97 0.2 CALM 0 0 0 0 1020.2 - 0.0
20/03:00am 6.6 5.7 6.0 96 0.3 CALM 0 0 0 0 1020.2 1020.2 0.0
20/02:30am 6.8 5.9 6.2 96 0.3 CALM 0 4 0 2 1020.2 - 0.0
20/02:00am 7.2 6.4 6.5 95 0.3 CALM 0 0 0 0 1020.4 - 0.0
20/01:30am 7.5 6.7 6.7 95 0.4 CALM 0 0 0 0 1020.6 - 0.0
20/01:00am 7.8 7.1 6.8 93 0.5 CALM 0 0 0 0 1020.7 - 0.0
20/12:30am 8.3 7.7 7.3 93 0.5 CALM 0 0 0 0 1020.5 - 0.0
20/12:00am 8.5 7.9 7.2 91 0.6 CALM 0 0 0 0 1020.5 1020.5 0.0
 
Date/Time
EST
Temp
°C
App
Temp
°C
Dew
Point
Rel
Hum
%
Delta-T
°C
Wind Press
QNH
hPa
Press
MSL
hPa
Rain
since 9 am
mm
Dir
 
Spd
km/h
Gust
km/h
Spd
kts
Gust
kts
19/11:30pm 8.9 8.3 7.4 90 0.7 CALM 0 0 0 0 1020.5 - 0.0
19/11:00pm 9.4 8.8 7.6 88 0.9 CALM 0 4 0 2 1020.2 - 0.0
19/10:30pm 10.3 8.6 7.7 84 1.3 SSE 6 7 3 4 1020.3 - 0.0
19/10:00pm 11.4 9.4 7.3 76 2.0 S 7 9 4 5 1020.4 - 0.0

Other Formats:

Comma delimited format used in spreadsheet applications
http://www.bom.gov.au/fwo/IDQ60801/IDQ60801.94510.axf

JavaScript Object Notation format (JSON) in row-major order
http://www.bom.gov.au/fwo/IDQ60801/IDQ60801.94510.json